sensor_id;sensor_type;location;lat;lon;timestamp;pressure;altitude;pressure_sealevel;temperature;humidity
22872;BME280;11603;44.910;8.630;2023-02-18T00:00:11;101926.28;;;9.71;100.00
22872;BME280;11603;44.910;8.630;2023-02-18T00:02:38;101932.41;;;9.73;100.00
22872;BME280;11603;44.910;8.630;2023-02-18T00:05:04;101926.97;;;9.76;100.00
22872;BME280;11603;44.910;8.630;2023-02-18T00:07:36;101926.47;;;9.67;100.00
22872;BME280;11603;44.910;8.630;2023-02-18T00:10:03;101926.50;;;9.65;100.00
22872;BME280;11603;44.910;8.630;2023-02-18T00:12:30;101924.66;;;9.67;100.00
22872;BME280;11603;44.910;8.630;2023-02-18T00:14:56;101924.66;;;9.67;100.00
22872;BME280;11603;44.910;8.630;2023-02-18T00:17:22;101908.69;;;9.66;100.00
22872;BME280;11603;44.910;8.630;2023-02-18T00:19:49;101912.28;;;9.65;100.00
22872;BME280;11603;44.910;8.630;2023-02-18T00:22:15;101912.44;;;9.60;100.00
22872;BME280;11603;44.910;8.630;2023-02-18T00:24:41;101903.38;;;9.64;100.00
22872;BME280;11603;44.910;8.630;2023-02-18T00:27:08;101892.41;;;9.72;100.00
22872;BME280;11603;44.910;8.630;2023-02-18T00:29:33;101891.41;;;9.74;100.00
22872;BME280;11603;44.910;8.630;2023-02-18T00:31:59;101895.00;;;9.73;100.00
22872;BME280;11603;44.910;8.630;2023-02-18T00:34:25;101898.41;;;9.78;100.00
22872;BME280;11603;44.910;8.630;2023-02-18T00:36:50;101886.66;;;9.83;100.00
22872;BME280;11603;44.910;8.630;2023-02-18T00:39:16;101895.09;;;9.72;100.00
22872;BME280;11603;44.910;8.630;2023-02-18T00:41:42;101894.19;;;9.48;100.00
22872;BME280;11603;44.910;8.630;2023-02-18T00:44:08;101883.47;;;9.50;100.00
22872;BME280;11603;44.910;8.630;2023-02-18T00:46:34;101891.75;;;9.42;100.00
22872;BME280;11603;44.910;8.630;2023-02-18T00:49:00;101903.47;;;9.38;100.00
22872;BME280;11603;44.910;8.630;2023-02-18T00:51:26;101894.88;;;9.30;100.00
22872;BME280;11603;44.910;8.630;2023-02-18T00:53:52;101907.56;;;9.23;100.00
22872;BME280;11603;44.910;8.630;2023-02-18T00:56:18;101905.03;;;9.20;100.00
22872;BME280;11603;44.910;8.630;2023-02-18T00:58:44;101901.34;;;9.23;100.00
22872;BME280;11603;44.910;8.630;2023-02-18T01:01:10;101903.84;;;9.27;100.00
22872;BME280;11603;44.910;8.630;2023-02-18T01:03:37;101893.34;;;9.23;100.00
22872;BME280;11603;44.910;8.630;2023-02-18T01:06:05;101897.81;;;9.22;100.00
22872;BME280;11603;44.910;8.630;2023-02-18T01:08:32;101893.16;;;9.27;100.00
22872;BME280;11603;44.910;8.630;2023-02-18T01:10:58;101889.09;;;9.17;100.00
22872;BME280;11603;44.910;8.630;2023-02-18T01:13:25;101880.28;;;9.15;100.00
22872;BME280;11603;44.910;8.630;2023-02-18T01:15:51;101864.03;;;9.21;100.00
22872;BME280;11603;44.910;8.630;2023-02-18T01:18:17;101864.09;;;9.20;100.00
22872;BME280;11603;44.910;8.630;2023-02-18T01:20:44;101869.09;;;9.29;100.00
22872;BME280;11603;44.910;8.630;2023-02-18T01:23:10;101874.44;;;9.29;100.00
22872;BME280;11603;44.910;8.630;2023-02-18T01:25:36;101867.56;;;9.22;100.00
22872;BME280;11603;44.910;8.630;2023-02-18T01:28:03;101858.34;;;9.06;100.00
22872;BME280;11603;44.910;8.630;2023-02-18T01:30:29;101861.38;;;8.97;100.00
22872;BME280;11603;44.910;8.630;2023-02-18T01:32:56;101869.66;;;8.89;100.00
22872;BME280;11603;44.910;8.630;2023-02-18T01:35:22;101866.19;;;8.85;100.00
22872;BME280;11603;44.910;8.630;2023-02-18T01:37:48;101866.19;;;8.85;100.00
22872;BME280;11603;44.910;8.630;2023-02-18T01:40:17;101865.56;;;8.79;100.00
22872;BME280;11603;44.910;8.630;2023-02-18T01:42:43;101863.81;;;8.78;100.00
22872;BME280;11603;44.910;8.630;2023-02-18T01:48:22;101848.97;;;8.69;100.00
22872;BME280;11603;44.910;8.630;2023-02-18T01:56:13;101846.91;;;8.53;100.00
22872;BME280;11603;44.910;8.630;2023-02-18T01:58:41;101842.41;;;8.53;100.00
22872;BME280;11603;44.910;8.630;2023-02-18T02:01:08;101835.59;;;8.44;100.00
22872;BME280;11603;44.910;8.630;2023-02-18T02:03:34;101837.50;;;8.41;100.00
22872;BME280;11603;44.910;8.630;2023-02-18T02:06:00;101833.84;;;8.43;100.00
22872;BME280;11603;44.910;8.630;2023-02-18T02:08:26;101827.72;;;8.41;100.00
22872;BME280;11603;44.910;8.630;2023-02-18T02:11:06;101832.22;;;8.39;100.00
22872;BME280;11603;44.910;8.630;2023-02-18T02:13:59;101830.53;;;8.37;100.00
22872;BME280;11603;44.910;8.630;2023-02-18T02:16:39;101828.13;;;8.28;100.00
22872;BME280;11603;44.910;8.630;2023-02-18T02:19:53;101824.81;;;8.21;100.00
22872;BME280;11603;44.910;8.630;2023-02-18T02:36:30;101829.34;;;8.45;100.00
22872;BME280;11603;44.910;8.630;2023-02-18T02:41:48;101821.41;;;8.44;100.00
22872;BME280;11603;44.910;8.630;2023-02-18T02:46:45;101814.59;;;8.35;100.00
22872;BME280;11603;44.910;8.630;2023-02-18T02:49:31;101815.47;;;8.36;100.00
22872;BME280;11603;44.910;8.630;2023-02-18T02:54:27;101813.00;;;8.30;100.00
22872;BME280;11603;44.910;8.630;2023-02-18T02:57:06;101805.84;;;8.32;100.00
22872;BME280;11603;44.910;8.630;2023-02-18T02:59:34;101805.88;;;8.30;100.00
22872;BME280;11603;44.910;8.630;2023-02-18T03:02:37;101808.81;;;8.21;100.00
22872;BME280;11603;44.910;8.630;2023-02-18T03:05:20;101811.56;;;8.18;100.00
22872;BME280;11603;44.910;8.630;2023-02-18T03:11:10;101811.84;;;8.11;100.00
22872;BME280;11603;44.910;8.630;2023-02-18T03:13:55;101815.22;;;8.16;100.00
22872;BME280;11603;44.910;8.630;2023-02-18T03:16:34;101809.41;;;8.03;100.00
22872;BME280;11603;44.910;8.630;2023-02-18T03:19:09;101811.38;;;7.96;100.00
22872;BME280;11603;44.910;8.630;2023-02-18T03:21:40;101809.72;;;7.94;100.00
22872;BME280;11603;44.910;8.630;2023-02-18T03:24:12;101815.03;;;7.94;100.00
22872;BME280;11603;44.910;8.630;2023-02-18T03:26:44;101816.16;;;7.85;100.00
22872;BME280;11603;44.910;8.630;2023-02-18T03:29:12;101812.00;;;7.77;100.00
22872;BME280;11603;44.910;8.630;2023-02-18T03:31:39;101807.56;;;7.77;100.00
22872;BME280;11603;44.910;8.630;2023-02-18T03:34:10;101808.50;;;7.75;100.00
22872;BME280;11603;44.910;8.630;2023-02-18T03:36:37;101809.47;;;7.74;100.00
22872;BME280;11603;44.910;8.630;2023-02-18T03:39:08;101797.13;;;7.70;100.00
22872;BME280;11603;44.910;8.630;2023-02-18T03:41:35;101802.72;;;7.62;100.00
22872;BME280;11603;44.910;8.630;2023-02-18T03:44:04;101800.09;;;7.60;100.00
22872;BME280;11603;44.910;8.630;2023-02-18T03:46:31;101792.25;;;7.56;100.00
22872;BME280;11603;44.910;8.630;2023-02-18T03:48:57;101798.44;;;7.56;100.00
22872;BME280;11603;44.910;8.630;2023-02-18T03:51:23;101803.97;;;7.49;100.00
22872;BME280;11603;44.910;8.630;2023-02-18T03:53:48;101802.75;;;7.31;100.00
22872;BME280;11603;44.910;8.630;2023-02-18T03:56:14;101802.19;;;7.20;100.00
22872;BME280;11603;44.910;8.630;2023-02-18T03:58:40;101801.44;;;7.16;100.00
22872;BME280;11603;44.910;8.630;2023-02-18T04:01:05;101797.28;;;7.06;100.00
22872;BME280;11603;44.910;8.630;2023-02-18T04:03:31;101799.94;;;7.06;100.00
22872;BME280;11603;44.910;8.630;2023-02-18T04:05:56;101803.69;;;6.99;100.00
22872;BME280;11603;44.910;8.630;2023-02-18T04:08:22;101801.16;;;6.95;100.00
22872;BME280;11603;44.910;8.630;2023-02-18T04:10:47;101811.91;;;6.90;100.00
22872;BME280;11603;44.910;8.630;2023-02-18T04:13:13;101809.47;;;6.82;100.00
22872;BME280;11603;44.910;8.630;2023-02-18T04:15:39;101815.94;;;6.72;100.00
22872;BME280;11603;44.910;8.630;2023-02-18T04:18:05;101809.28;;;6.56;100.00
22872;BME280;11603;44.910;8.630;2023-02-18T04:20:30;101807.03;;;6.41;100.00
22872;BME280;11603;44.910;8.630;2023-02-18T04:22:56;101814.16;;;6.39;100.00
22872;BME280;11603;44.910;8.630;2023-02-18T04:25:21;101815.09;;;6.38;100.00
22872;BME280;11603;44.910;8.630;2023-02-18T04:27:47;101812.34;;;6.41;100.00
22872;BME280;11603;44.910;8.630;2023-02-18T04:30:12;101823.97;;;6.37;100.00
22872;BME280;11603;44.910;8.630;2023-02-18T04:32:38;101826.53;;;6.40;100.00
22872;BME280;11603;44.910;8.630;2023-02-18T04:35:04;101829.00;;;6.48;100.00
22872;BME280;11603;44.910;8.630;2023-02-18T04:37:30;101839.44;;;6.55;100.00
22872;BME280;11603;44.910;8.630;2023-02-18T04:39:55;101835.88;;;6.55;100.00
22872;BME280;11603;44.910;8.630;2023-02-18T04:42:21;101837.75;;;6.51;100.00
22872;BME280;11603;44.910;8.630;2023-02-18T04:44:46;101836.06;;;6.49;100.00
22872;BME280;11603;44.910;8.630;2023-02-18T04:47:12;101832.69;;;6.42;100.00
22872;BME280;11603;44.910;8.630;2023-02-18T04:49:37;101831.84;;;6.40;100.00
22872;BME280;11603;44.910;8.630;2023-02-18T04:52:03;101836.06;;;6.49;100.00
22872;BME280;11603;44.910;8.630;2023-02-18T04:54:29;101843.97;;;6.52;100.00
22872;BME280;11603;44.910;8.630;2023-02-18T04:56:54;101842.09;;;6.55;100.00
22872;BME280;11603;44.910;8.630;2023-02-18T04:59:20;101840.44;;;6.51;100.00
22872;BME280;11603;44.910;8.630;2023-02-18T05:01:45;101837.66;;;6.56;100.00
22872;BME280;11603;44.910;8.630;2023-02-18T05:04:11;101836.72;;;6.57;100.00
22872;BME280;11603;44.910;8.630;2023-02-18T05:06:36;101831.56;;;6.51;100.00
22872;BME280;11603;44.910;8.630;2023-02-18T05:09:05;101825.59;;;6.43;100.00
22872;BME280;11603;44.910;8.630;2023-02-18T05:11:30;101838.13;;;6.37;100.00
22872;BME280;11603;44.910;8.630;2023-02-18T05:13:56;101837.31;;;6.34;100.00
22872;BME280;11603;44.910;8.630;2023-02-18T05:16:21;101842.97;;;6.20;100.00
22872;BME280;11603;44.910;8.630;2023-02-18T05:18:47;101844.88;;;6.14;100.00
22872;BME280;11603;44.910;8.630;2023-02-18T05:21:12;101846.88;;;6.06;100.00
22872;BME280;11603;44.910;8.630;2023-02-18T05:23:38;101846.22;;;5.96;100.00
22872;BME280;11603;44.910;8.630;2023-02-18T05:26:03;101839.25;;;5.90;100.00
22872;BME280;11603;44.910;8.630;2023-02-18T05:28:29;101851.56;;;5.94;100.00
22872;BME280;11603;44.910;8.630;2023-02-18T05:30:54;101848.91;;;5.94;100.00
22872;BME280;11603;44.910;8.630;2023-02-18T05:33:20;101848.22;;;5.85;100.00
22872;BME280;11603;44.910;8.630;2023-02-18T05:35:45;101853.66;;;5.77;100.00
22872;BME280;11603;44.910;8.630;2023-02-18T05:38:11;101856.53;;;5.68;100.00
22872;BME280;11603;44.910;8.630;2023-02-18T05:40:37;101860.13;;;5.66;100.00
22872;BME280;11603;44.910;8.630;2023-02-18T05:43:03;101859.31;;;5.62;100.00
22872;BME280;11603;44.910;8.630;2023-02-18T05:45:28;101857.66;;;5.58;100.00
22872;BME280;11603;44.910;8.630;2023-02-18T05:47:54;101850.44;;;5.63;100.00
22872;BME280;11603;44.910;8.630;2023-02-18T05:50:20;101857.38;;;5.70;100.00
22872;BME280;11603;44.910;8.630;2023-02-18T05:52:45;101849.34;;;5.73;100.00
22872;BME280;11603;44.910;8.630;2023-02-18T05:55:10;101846.69;;;5.73;100.00
22872;BME280;11603;44.910;8.630;2023-02-18T05:57:36;101856.31;;;5.77;100.00
22872;BME280;11603;44.910;8.630;2023-02-18T06:00:03;101857.16;;;5.81;100.00
22872;BME280;11603;44.910;8.630;2023-02-18T06:02:30;101854.56;;;5.76;100.00
22872;BME280;11603;44.910;8.630;2023-02-18T06:04:55;101859.94;;;5.75;100.00
22872;BME280;11603;44.910;8.630;2023-02-18T06:07:21;101862.63;;;5.72;100.00
22872;BME280;11603;44.910;8.630;2023-02-18T06:09:46;101861.63;;;5.77;100.00
22872;BME280;11603;44.910;8.630;2023-02-18T06:12:12;101861.63;;;5.79;100.00
22872;BME280;11603;44.910;8.630;2023-02-18T06:14:37;101852.00;;;5.73;100.00
22872;BME280;11603;44.910;8.630;2023-02-18T06:17:12;101860.81;;;5.75;100.00
22872;BME280;11603;44.910;8.630;2023-02-18T06:19:38;101864.16;;;5.83;100.00
22872;BME280;11603;44.910;8.630;2023-02-18T06:22:04;101873.00;;;5.84;100.00
22872;BME280;11603;44.910;8.630;2023-02-18T06:24:30;101873.03;;;5.82;100.00
22872;BME280;11603;44.910;8.630;2023-02-18T06:26:55;101875.88;;;5.75;100.00
22872;BME280;11603;44.910;8.630;2023-02-18T06:29:21;101872.38;;;5.71;100.00
22872;BME280;11603;44.910;8.630;2023-02-18T06:31:46;101869.72;;;5.71;100.00
22872;BME280;11603;44.910;8.630;2023-02-18T06:34:12;101878.69;;;5.66;100.00
22872;BME280;11603;44.910;8.630;2023-02-18T06:36:37;101871.66;;;5.65;100.00
22872;BME280;11603;44.910;8.630;2023-02-18T06:39:03;101877.78;;;5.67;100.00
22872;BME280;11603;44.910;8.630;2023-02-18T06:41:29;101875.13;;;5.67;100.00
22872;BME280;11603;44.910;8.630;2023-02-18T06:43:55;101879.56;;;5.66;100.00
22872;BME280;11603;44.910;8.630;2023-02-18T06:46:20;101875.09;;;5.70;100.00
22872;BME280;11603;44.910;8.630;2023-02-18T06:48:46;101874.13;;;5.74;100.00
22872;BME280;11603;44.910;8.630;2023-02-18T06:51:12;101867.03;;;5.74;100.00
22872;BME280;11603;44.910;8.630;2023-02-18T06:53:37;101873.03;;;5.82;100.00
22872;BME280;11603;44.910;8.630;2023-02-18T06:56:03;101877.38;;;5.88;100.00
22872;BME280;11603;44.910;8.630;2023-02-18T06:58:28;101874.75;;;5.85;100.00
22872;BME280;11603;44.910;8.630;2023-02-18T07:00:54;101880.94;;;5.85;100.00
22872;BME280;11603;44.910;8.630;2023-02-18T07:03:19;101883.56;;;5.88;100.00
22872;BME280;11603;44.910;8.630;2023-02-18T07:05:45;101885.16;;;5.95;100.00
22872;BME280;11603;44.910;8.630;2023-02-18T07:08:11;101888.63;;;5.99;100.00
22872;BME280;11603;44.910;8.630;2023-02-18T07:10:36;101896.59;;;5.99;100.00
22872;BME280;11603;44.910;8.630;2023-02-18T07:13:02;101903.63;;;6.02;100.00
22872;BME280;11603;44.910;8.630;2023-02-18T07:15:28;101903.63;;;6.02;100.00
22872;BME280;11603;44.910;8.630;2023-02-18T07:17:53;101904.44;;;6.05;100.00
22872;BME280;11603;44.910;8.630;2023-02-18T07:20:20;101901.69;;;6.08;100.00
22872;BME280;11603;44.910;8.630;2023-02-18T07:22:46;101902.56;;;6.09;100.00
22872;BME280;11603;44.910;8.630;2023-02-18T07:25:12;101905.31;;;6.06;100.00
22872;BME280;11603;44.910;8.630;2023-02-18T07:27:37;101906.00;;;6.14;100.00
22872;BME280;11603;44.910;8.630;2023-02-18T07:30:03;101907.59;;;6.22;100.00
22872;BME280;11603;44.910;8.630;2023-02-18T07:32:29;101911.59;;;6.38;100.00
22872;BME280;11603;44.910;8.630;2023-02-18T07:34:54;101906.75;;;6.56;100.00
22872;BME280;11603;44.910;8.630;2023-02-18T07:37:20;101913.75;;;6.60;100.00
22872;BME280;11603;44.910;8.630;2023-02-18T07:39:45;101910.06;;;6.65;100.00
22872;BME280;11603;44.910;8.630;2023-02-18T07:42:11;101912.44;;;6.76;100.00
22872;BME280;11603;44.910;8.630;2023-02-18T07:44:38;101908.69;;;6.85;100.00
22872;BME280;11603;44.910;8.630;2023-02-18T07:47:05;101914.78;;;6.90;100.00
22872;BME280;11603;44.910;8.630;2023-02-18T07:49:31;101906.56;;;6.97;100.00
22872;BME280;11603;44.910;8.630;2023-02-18T07:51:58;101910.63;;;7.12;100.00
22872;BME280;11603;44.910;8.630;2023-02-18T07:54:24;101910.25;;;7.26;100.00
22872;BME280;11603;44.910;8.630;2023-02-18T07:56:50;101909.13;;;7.34;100.00
22872;BME280;11603;44.910;8.630;2023-02-18T07:59:16;101915.06;;;7.44;100.00
22872;BME280;11603;44.910;8.630;2023-02-18T08:01:41;101921.84;;;7.55;100.00
22872;BME280;11603;44.910;8.630;2023-02-18T08:04:07;101908.94;;;7.71;100.00
22872;BME280;11603;44.910;8.630;2023-02-18T08:06:35;101920.03;;;7.87;100.00
22872;BME280;11603;44.910;8.630;2023-02-18T08:09:01;101914.56;;;7.91;100.00
22872;BME280;11603;44.910;8.630;2023-02-18T08:11:26;101911.44;;;8.06;100.00
22872;BME280;11603;44.910;8.630;2023-02-18T08:13:52;101909.41;;;8.15;100.00
22872;BME280;11603;44.910;8.630;2023-02-18T08:16:19;101907.03;;;8.35;100.00
22872;BME280;11603;44.910;8.630;2023-02-18T08:18:46;101917.22;;;8.48;100.00
22872;BME280;11603;44.910;8.630;2023-02-18T08:21:13;101916.88;;;8.59;100.00
22872;BME280;11603;44.910;8.630;2023-02-18T08:23:39;101917.38;;;8.72;100.00
22872;BME280;11603;44.910;8.630;2023-02-18T08:26:06;101922.34;;;8.82;100.00
22872;BME280;11603;44.910;8.630;2023-02-18T08:28:40;101912.78;;;9.02;100.00
22872;BME280;11603;44.910;8.630;2023-02-18T08:31:06;101913.06;;;9.19;100.00
22872;BME280;11603;44.910;8.630;2023-02-18T08:33:32;101902.97;;;9.27;100.00
22872;BME280;11603;44.910;8.630;2023-02-18T08:35:58;101916.78;;;9.40;100.00
22872;BME280;11603;44.910;8.630;2023-02-18T08:38:24;101913.41;;;9.58;100.00
22872;BME280;11603;44.910;8.630;2023-02-18T08:40:50;101902.94;;;9.76;100.00
22872;BME280;11603;44.910;8.630;2023-02-18T08:43:16;101897.28;;;9.84;100.00
22872;BME280;11603;44.910;8.630;2023-02-18T08:45:43;101898.69;;;9.94;100.00
22872;BME280;11603;44.910;8.630;2023-02-18T08:48:10;101904.41;;;10.07;100.00
22872;BME280;11603;44.910;8.630;2023-02-18T08:50:37;101910.13;;;10.21;100.00
22872;BME280;11603;44.910;8.630;2023-02-18T08:53:03;101909.69;;;10.32;100.00
22872;BME280;11603;44.910;8.630;2023-02-18T08:55:30;101904.53;;;10.49;100.00
22872;BME280;11603;44.910;8.630;2023-02-18T08:57:56;101903.22;;;10.59;100.00
22872;BME280;11603;44.910;8.630;2023-02-18T09:00:22;101898.00;;;10.78;100.00
22872;BME280;11603;44.910;8.630;2023-02-18T09:02:48;101899.22;;;10.91;100.00
22872;BME280;11603;44.910;8.630;2023-02-18T09:05:13;101886.09;;;11.05;100.00
22872;BME280;11603;44.910;8.630;2023-02-18T09:07:39;101890.88;;;11.19;100.00
22872;BME280;11603;44.910;8.630;2023-02-18T09:10:05;101885.44;;;11.40;100.00
22872;BME280;11603;44.910;8.630;2023-02-18T09:12:31;101881.19;;;11.55;100.00
22872;BME280;11603;44.910;8.630;2023-02-18T09:14:56;101882.44;;;11.67;100.00
22872;BME280;11603;44.910;8.630;2023-02-18T09:17:22;101881.09;;;11.77;100.00
22872;BME280;11603;44.910;8.630;2023-02-18T09:19:47;101876.88;;;11.90;100.00
22872;BME280;11603;44.910;8.630;2023-02-18T09:22:13;101876.09;;;12.07;100.00
22872;BME280;11603;44.910;8.630;2023-02-18T09:24:40;101875.16;;;12.08;100.00
22872;BME280;11603;44.910;8.630;2023-02-18T09:27:07;101872.19;;;12.14;100.00
22872;BME280;11603;44.910;8.630;2023-02-18T09:29:33;101867.78;;;12.30;100.00
22872;BME280;11603;44.910;8.630;2023-02-18T09:32:02;101872.03;;;12.53;100.00
22872;BME280;11603;44.910;8.630;2023-02-18T09:34:28;101865.19;;;12.64;100.00
22872;BME280;11603;44.910;8.630;2023-02-18T09:36:53;101859.03;;;12.80;100.00
22872;BME280;11603;44.910;8.630;2023-02-18T09:39:19;101857.84;;;13.02;100.00
22872;BME280;11603;44.910;8.630;2023-02-18T09:41:47;101853.88;;;13.09;100.00
22872;BME280;11603;44.910;8.630;2023-02-18T09:44:20;101852.47;;;13.20;100.00
22872;BME280;11603;44.910;8.630;2023-02-18T09:49:33;101864.13;;;13.53;100.00
22872;BME280;11603;44.910;8.630;2023-02-18T09:52:13;101868.16;;;13.77;100.00
22872;BME280;11603;44.910;8.630;2023-02-18T09:54:41;101870.78;;;13.94;100.00
22872;BME280;11603;44.910;8.630;2023-02-18T09:57:17;101864.63;;;14.08;100.00
22872;BME280;11603;44.910;8.630;2023-02-18T09:59:48;101868.56;;;14.18;100.00
22872;BME280;11603;44.910;8.630;2023-02-18T10:02:15;101859.06;;;14.27;100.00
22872;BME280;11603;44.910;8.630;2023-02-18T10:04:42;101850.66;;;14.33;100.00
22872;BME280;11603;44.910;8.630;2023-02-18T10:07:28;101848.13;;;14.46;100.00
22872;BME280;11603;44.910;8.630;2023-02-18T10:09:56;101849.69;;;14.65;100.00
22872;BME280;11603;44.910;8.630;2023-02-18T10:12:25;101838.06;;;14.79;100.00
22872;BME280;11603;44.910;8.630;2023-02-18T10:14:53;101841.00;;;14.90;100.00
22872;BME280;11603;44.910;8.630;2023-02-18T10:17:22;101836.69;;;15.02;100.00
22872;BME280;11603;44.910;8.630;2023-02-18T10:19:49;101838.81;;;15.11;100.00
22872;BME280;11603;44.910;8.630;2023-02-18T10:22:16;101837.22;;;15.22;100.00
22872;BME280;11603;44.910;8.630;2023-02-18T10:24:46;101831.16;;;15.33;100.00
22872;BME280;11603;44.910;8.630;2023-02-18T10:27:19;101840.81;;;15.51;100.00
22872;BME280;11603;44.910;8.630;2023-02-18T10:29:47;101835.81;;;15.59;100.00
22872;BME280;11603;44.910;8.630;2023-02-18T10:32:54;101819.97;;;15.82;100.00
22872;BME280;11603;44.910;8.630;2023-02-18T10:35:37;101819.44;;;15.62;100.00
22872;BME280;11603;44.910;8.630;2023-02-18T10:38:19;101809.50;;;15.63;100.00
22872;BME280;11603;44.910;8.630;2023-02-18T10:41:09;101802.81;;;15.83;100.00
22872;BME280;11603;44.910;8.630;2023-02-18T10:43:59;101801.13;;;16.08;100.00
22872;BME280;11603;44.910;8.630;2023-02-18T10:46:36;101799.94;;;16.13;100.00
22872;BME280;11603;44.910;8.630;2023-02-18T10:52:14;101791.78;;;16.53;100.00
22872;BME280;11603;44.910;8.630;2023-02-18T10:54:59;101775.28;;;16.58;100.00
22872;BME280;11603;44.910;8.630;2023-02-18T10:57:25;101774.38;;;16.84;100.00
22872;BME280;11603;44.910;8.630;2023-02-18T11:02:27;101779.66;;;16.73;98.98
22872;BME280;11603;44.910;8.630;2023-02-18T11:04:56;101777.19;;;16.83;96.67
22872;BME280;11603;44.910;8.630;2023-02-18T11:07:30;101758.56;;;16.91;96.85
22872;BME280;11603;44.910;8.630;2023-02-18T11:09:59;101757.06;;;16.87;96.34
22872;BME280;11603;44.910;8.630;2023-02-18T11:12:26;101756.75;;;17.04;95.80
22872;BME280;11603;44.910;8.630;2023-02-18T11:17:36;101752.63;;;17.36;94.51
22872;BME280;11603;44.910;8.630;2023-02-18T11:20:20;101750.44;;;17.42;93.89
22872;BME280;11603;44.910;8.630;2023-02-18T11:22:48;101748.19;;;17.23;94.18
22872;BME280;11603;44.910;8.630;2023-02-18T11:25:27;101744.84;;;17.32;94.47
22872;BME280;11603;44.910;8.630;2023-02-18T11:28:05;101738.56;;;17.31;93.72
22872;BME280;11603;44.910;8.630;2023-02-18T11:30:40;101736.09;;;17.16;93.30
22872;BME280;11603;44.910;8.630;2023-02-18T11:36:24;101720.47;;;17.45;92.84
22872;BME280;11603;44.910;8.630;2023-02-18T11:41:43;101705.25;;;17.18;93.44
22872;BME280;11603;44.910;8.630;2023-02-18T11:44:21;101698.72;;;17.33;94.10
22872;BME280;11603;44.910;8.630;2023-02-18T11:49:42;101703.41;;;17.31;93.58
22872;BME280;11603;44.910;8.630;2023-02-18T11:52:19;101694.28;;;17.32;94.16
22872;BME280;11603;44.910;8.630;2023-02-18T11:55:14;101687.25;;;17.43;93.40
22872;BME280;11603;44.910;8.630;2023-02-18T11:57:47;101682.50;;;17.33;94.01
22872;BME280;11603;44.910;8.630;2023-02-18T12:02:46;101677.50;;;17.40;93.25
22872;BME280;11603;44.910;8.630;2023-02-18T12:05:22;101676.38;;;17.31;93.28
22872;BME280;11603;44.910;8.630;2023-02-18T12:08:09;101676.38;;;17.31;93.57
22872;BME280;11603;44.910;8.630;2023-02-18T12:10:40;101664.78;;;17.29;92.59
22872;BME280;11603;44.910;8.630;2023-02-18T12:13:27;101649.94;;;17.59;91.50
22872;BME280;11603;44.910;8.630;2023-02-18T12:19:05;101650.19;;;17.32;91.78
22872;BME280;11603;44.910;8.630;2023-02-18T12:30:09;101626.88;;;17.42;88.39
22872;BME280;11603;44.910;8.630;2023-02-18T12:51:58;101608.91;;;17.41;87.01
22872;BME280;11603;44.910;8.630;2023-02-18T12:54:52;101605.84;;;17.22;87.63
22872;BME280;11603;44.910;8.630;2023-02-18T13:13:35;101572.59;;;17.32;87.35
22872;BME280;11603;44.910;8.630;2023-02-18T13:16:08;101570.63;;;17.34;87.35
22872;BME280;11603;44.910;8.630;2023-02-18T13:18:40;101561.97;;;17.42;86.92
22872;BME280;11603;44.910;8.630;2023-02-18T13:21:12;101562.78;;;17.31;87.26
22872;BME280;11603;44.910;8.630;2023-02-18T13:24:03;101559.59;;;17.38;87.25
22872;BME280;11603;44.910;8.630;2023-02-18T13:26:29;101551.59;;;17.36;86.56
22872;BME280;11603;44.910;8.630;2023-02-18T13:34:35;101525.53;;;17.35;86.05
22872;BME280;11603;44.910;8.630;2023-02-18T13:40:15;101534.91;;;17.18;86.66
22872;BME280;11603;44.910;8.630;2023-02-18T13:42:42;101536.44;;;17.33;86.83
22872;BME280;11603;44.910;8.630;2023-02-18T13:47:49;101513.28;;;17.42;86.98
22872;BME280;11603;44.910;8.630;2023-02-18T13:52:48;101520.50;;;17.18;87.22
22872;BME280;11603;44.910;8.630;2023-02-18T13:55:21;101515.97;;;17.42;87.44
22872;BME280;11603;44.910;8.630;2023-02-18T13:57:53;101513.31;;;17.53;87.03
22872;BME280;11603;44.910;8.630;2023-02-18T14:00:23;101507.09;;;17.64;86.55
22872;BME280;11603;44.910;8.630;2023-02-18T14:02:58;101519.34;;;17.33;87.75
22872;BME280;11603;44.910;8.630;2023-02-18T14:05:38;101513.50;;;17.39;88.36
22872;BME280;11603;44.910;8.630;2023-02-18T14:08:15;101511.69;;;17.51;88.12
22872;BME280;11603;44.910;8.630;2023-02-18T14:13:48;101510.63;;;17.53;88.52
22872;BME280;11603;44.910;8.630;2023-02-18T14:16:14;101510.63;;;17.53;88.87
22872;BME280;11603;44.910;8.630;2023-02-18T14:23:38;101516.38;;;17.25;90.56
22872;BME280;11603;44.910;8.630;2023-02-18T14:31:24;101508.16;;;17.26;91.47
22872;BME280;11603;44.910;8.630;2023-02-18T14:42:31;101504.31;;;16.94;93.72
22872;BME280;11603;44.910;8.630;2023-02-18T14:50:21;101496.13;;;16.83;93.96
22872;BME280;11603;44.910;8.630;2023-02-18T14:52:51;101499.34;;;16.88;95.19
22872;BME280;11603;44.910;8.630;2023-02-18T14:55:22;101492.16;;;17.00;94.63
22872;BME280;11603;44.910;8.630;2023-02-18T14:58:05;101502.97;;;17.00;94.77
22872;BME280;11603;44.910;8.630;2023-02-18T15:00:34;101499.44;;;16.86;95.54
22872;BME280;11603;44.910;8.630;2023-02-18T15:03:00;101504.41;;;16.92;95.54
22872;BME280;11603;44.910;8.630;2023-02-18T15:05:29;101499.16;;;16.78;95.57
22872;BME280;11603;44.910;8.630;2023-02-18T15:07:58;101497.25;;;16.91;95.60
22872;BME280;11603;44.910;8.630;2023-02-18T15:10:35;101506.66;;;16.99;94.89
22872;BME280;11603;44.910;8.630;2023-02-18T15:13:04;101496.53;;;16.89;95.29
22872;BME280;11603;44.910;8.630;2023-02-18T15:15:33;101489.31;;;16.77;95.87
22872;BME280;11603;44.910;8.630;2023-02-18T15:18:01;101507.09;;;16.69;97.07
22872;BME280;11603;44.910;8.630;2023-02-18T15:20:30;101510.34;;;16.48;97.40